Time;durP1;ratioP1;P1;durP2;ratioP2;P2;SDS_P1;SDS_P2;PMS_P1;PMS_P2;Temp;Humidity;BMP_temperature;BMP_pressure;BME280_temperature;BME280_humidity;BME280_pressure;Samples;Min_cycle;Max_cycle;Signal;HPM_P1;HPM_P2
2021/03/12 00:00:55;;;;;;;55.70;28.90;;;6.70;53.80;;;;;;1772885;81;21162;-74
2021/03/12 00:03:33;;;;;;;56.50;29.07;;;6.80;54.10;;;;;;1772705;81;21177;-74
2021/03/12 00:06:09;;;;;;;53.92;28.85;;;6.90;53.50;;;;;;1772627;81;21102;-75
2021/03/12 00:08:47;;;;;;;57.38;28.23;;;6.90;53.30;;;;;;1772504;81;21168;-75
2021/03/12 00:11:15;;;;;;;58.23;29.30;;;6.80;53.00;;;;;;1772190;81;21134;-74
2021/03/12 00:13:43;;;;;;;60.65;30.12;;;6.80;54.40;;;;;;1772135;81;21134;-74
2021/03/12 00:16:10;;;;;;;54.90;29.12;;;6.80;54.20;;;;;;1772307;81;21151;-74
2021/03/12 00:18:42;;;;;;;54.83;28.70;;;6.80;54.80;;;;;;1772354;81;21158;-74
2021/03/12 00:21:12;;;;;;;59.65;28.38;;;6.90;53.70;;;;;;1772398;81;21149;-74
2021/03/12 00:23:41;;;;;;;57.70;28.83;;;6.90;53.60;;;;;;1772804;81;21127;-73
2021/03/12 00:26:10;;;;;;;55.28;28.20;;;7.00;53.60;;;;;;1772585;81;21142;-73
2021/03/12 00:28:38;;;;;;;58.33;29.05;;;6.90;54.30;;;;;;1772185;81;21607;-73
2021/03/12 00:31:07;;;;;;;58.50;28.15;;;6.80;54.00;;;;;;1772263;81;21142;-72
2021/03/12 00:33:36;;;;;;;54.98;28.98;;;6.70;53.60;;;;;;1772265;81;21587;-74
2021/03/12 00:36:05;;;;;;;54.88;28.20;;;6.60;54.60;;;;;;1772599;81;21548;-73
2021/03/12 00:38:33;;;;;;;58.83;28.73;;;6.60;55.30;;;;;;1772227;81;21146;-73
2021/03/12 00:41:06;;;;;;;62.67;27.75;;;6.50;55.90;;;;;;1772224;81;21576;-73
2021/03/12 00:43:38;;;;;;;59.23;28.40;;;6.40;55.60;;;;;;1771693;81;21576;-73
2021/03/12 00:46:11;;;;;;;55.65;28.20;;;6.30;55.30;;;;;;1772175;81;21596;-73
2021/03/12 00:48:39;;;;;;;59.83;28.57;;;6.40;55.80;;;;;;1772666;81;21138;-73
2021/03/12 00:51:08;;;;;;;52.70;27.15;;;6.30;55.50;;;;;;1772627;81;21127;-73
2021/03/12 00:53:54;;;;;;;57.27;28.83;;;6.30;55.70;;;;;;1772327;81;21587;-73
2021/03/12 00:56:23;;;;;;;55.40;27.65;;;6.30;55.80;;;;;;1772277;81;21149;-73
2021/03/12 00:58:50;;;;;;;54.15;26.35;;;6.20;55.50;;;;;;1772236;81;21130;-72
2021/03/12 01:01:19;;;;;;;57.05;27.48;;;6.30;56.10;;;;;;1772169;81;21248;-73
2021/03/12 01:03:47;;;;;;;57.35;27.45;;;6.30;56.70;;;;;;1772102;81;21173;-73
2021/03/12 01:06:15;;;;;;;54.38;27.55;;;6.40;55.60;;;;;;1772441;81;21138;-73
2021/03/12 01:08:45;;;;;;;55.60;27.90;;;6.50;55.40;;;;;;1772000;81;21605;-73
2021/03/12 01:11:13;;;;;;;54.98;27.07;;;6.50;56.00;;;;;;1772229;81;21119;-73
2021/03/12 01:13:42;;;;;;;55.40;27.82;;;6.50;55.30;;;;;;1772251;81;21157;-73
2021/03/12 01:16:10;;;;;;;51.83;26.35;;;6.40;55.40;;;;;;1772281;81;21161;-73
2021/03/12 01:18:40;;;;;;;51.58;27.58;;;6.40;56.70;;;;;;1772257;81;21150;-72
2021/03/12 01:21:13;;;;;;;52.35;27.25;;;6.30;56.90;;;;;;1772085;81;21133;-72
2021/03/12 01:23:41;;;;;;;52.65;26.93;;;6.20;56.40;;;;;;1772218;81;21146;-72
2021/03/12 01:26:09;;;;;;;53.38;26.52;;;6.10;56.90;;;;;;1772242;81;21141;-72
2021/03/12 01:28:43;;;;;;;53.50;26.97;;;6.10;57.80;;;;;;1772098;81;21095;-72
2021/03/12 01:31:11;;;;;;;55.98;27.73;;;6.20;56.60;;;;;;1772406;81;21161;-72
2021/03/12 01:33:41;;;;;;;57.93;26.30;;;6.20;56.60;;;;;;1772020;81;21134;-72
2021/03/12 01:36:09;;;;;;;52.90;27.00;;;6.20;56.30;;;;;;1772355;81;21129;-72
2021/03/12 01:38:38;;;;;;;51.92;25.55;;;6.10;56.50;;;;;;1772204;81;21133;-72
2021/03/12 01:41:06;;;;;;;54.15;27.02;;;6.20;57.00;;;;;;1794012;80;21597;-72
2021/03/12 01:43:36;;;;;;;58.50;26.77;;;6.10;56.50;;;;;;1769812;80;21152;-72
2021/03/12 01:46:04;;;;;;;53.02;26.97;;;6.10;57.00;;;;;;1800894;80;21280;-71
2021/03/12 01:48:33;;;;;;;50.88;26.20;;;6.10;57.10;;;;;;1800697;80;21722;-72
2021/03/12 01:51:05;;;;;;;48.38;24.57;;;6.20;56.60;;;;;;1801471;80;21555;-72
2021/03/12 01:53:36;;;;;;;46.20;24.07;;;6.20;56.60;;;;;;1801138;80;21280;-71
2021/03/12 01:56:07;;;;;;;48.13;23.45;;;6.30;56.30;;;;;;1801006;79;21719;-72
2021/03/12 01:58:42;;;;;;;49.90;24.02;;;6.40;55.60;;;;;;1800512;79;21307;-71
2021/03/12 02:01:12;;;;;;;47.83;24.32;;;6.40;55.30;;;;;;1799831;80;21725;-71
2021/03/12 02:03:42;;;;;;;53.15;25.10;;;6.50;55.10;;;;;;1800417;80;21271;-72
2021/03/12 02:06:14;;;;;;;53.00;26.73;;;6.60;54.80;;;;;;1799334;80;21141;-72
2021/03/12 02:08:43;;;;;;;49.73;25.30;;;6.50;55.10;;;;;;1801154;80;21140;-72
2021/03/12 02:11:19;;;;;;;52.03;26.07;;;6.50;55.60;;;;;;1798780;80;21303;-72
2021/03/12 02:14:12;;;;;;;52.30;25.85;;;6.40;56.00;;;;;;1801483;80;21287;-72
2021/03/12 02:16:49;;;;;;;53.92;25.75;;;6.30;56.50;;;;;;1801083;80;21149;-73
2021/03/12 02:19:41;;;;;;;55.20;27.50;;;6.40;56.90;;;;;;1801006;79;21182;-72
2021/03/12 02:22:12;;;;;;;61.70;30.70;;;6.50;55.60;;;;;;1801381;80;21129;-72
2021/03/12 02:24:54;;;;;;;64.55;32.28;;;6.50;55.20;;;;;;1800990;79;21271;-72
2021/03/12 02:27:25;;;;;;;67.58;32.20;;;6.40;55.50;;;;;;1798625;80;21114;-75
2021/03/12 02:30:00;;;;;;;66.87;33.38;;;6.50;55.90;;;;;;1800933;80;21320;-73
2021/03/12 02:32:35;;;;;;;65.30;32.65;;;6.60;55.70;;;;;;1799613;80;21737;-73
2021/03/12 02:35:11;;;;;;;69.42;34.13;;;6.50;55.70;;;;;;1769501;80;21157;-73
2021/03/12 02:37:41;;;;;;;69.22;33.40;;;6.60;55.90;;;;;;1801180;80;21134;-73
2021/03/12 02:40:11;;;;;;;72.32;35.30;;;6.50;55.80;;;;;;1800837;80;21141;-73
2021/03/12 02:42:49;;;;;;;74.27;34.70;;;6.60;55.60;;;;;;1798785;79;21137;-73
2021/03/12 02:45:20;;;;;;;70.47;34.30;;;6.60;55.80;;;;;;1801232;80;21153;-72
2021/03/12 02:47:51;;;;;;;69.53;34.65;;;6.70;55.40;;;;;;1800612;80;21705;-72
2021/03/12 02:50:22;;;;;;;70.22;34.58;;;6.60;55.50;;;;;;1769687;80;21169;-72
2021/03/12 02:52:53;;;;;;;57.70;28.70;;;6.60;56.20;;;;;;1800915;79;21714;-72
2021/03/12 02:55:24;;;;;;;54.80;28.87;;;6.50;56.60;;;;;;1801462;80;21129;-72
2021/03/12 02:57:54;;;;;;;64.55;30.85;;;6.30;56.30;;;;;;1800916;79;21133;-72
2021/03/12 03:00:23;;;;;;;63.28;30.88;;;6.30;56.60;;;;;;1800924;80;21738;-72
2021/03/12 03:03:08;;;;;;;57.90;28.45;;;6.20;56.30;;;;;;1801096;79;21707;-72
2021/03/12 03:05:55;;;;;;;61.08;29.42;;;6.30;57.20;;;;;;1800992;79;21271;-72
2021/03/12 03:08:25;;;;;;;58.87;28.80;;;6.20;57.40;;;;;;1801366;80;21143;-72
2021/03/12 03:11:01;;;;;;;59.60;28.65;;;6.10;57.60;;;;;;1801101;80;21602;-73
2021/03/12 03:13:33;;;;;;;63.10;30.72;;;6.20;57.80;;;;;;1800235;80;21287;-72
2021/03/12 03:16:04;;;;;;;58.78;29.82;;;6.10;57.10;;;;;;1765038;80;21177;-72
2021/03/12 03:18:36;;;;;;;57.98;29.90;;;6.10;57.30;;;;;;1795061;80;21292;-72
2021/03/12 03:21:06;;;;;;;56.98;29.12;;;6.10;57.50;;;;;;1761749;80;21157;-72
2021/03/12 03:23:39;;;;;;;60.33;28.30;;;6.20;57.50;;;;;;1762559;80;21121;-73
2021/03/12 03:26:07;;;;;;;57.60;28.87;;;6.30;56.60;;;;;;1762475;80;21579;-72
2021/03/12 03:28:37;;;;;;;58.28;29.55;;;6.30;57.00;;;;;;1794861;80;21106;-72
2021/03/12 03:31:06;;;;;;;59.30;30.72;;;6.50;56.60;;;;;;1795469;80;21145;-72
2021/03/12 03:33:34;;;;;;;63.58;30.40;;;6.50;56.40;;;;;;1795593;80;21137;-73
2021/03/12 03:36:05;;;;;;;59.08;29.45;;;6.50;56.60;;;;;;1795395;79;21584;-73
2021/03/12 03:38:33;;;;;;;56.50;28.67;;;6.50;56.30;;;;;;1795178;80;21287;-72
2021/03/12 03:41:13;;;;;;;63.38;30.43;;;6.50;56.60;;;;;;1795402;80;21133;-73
2021/03/12 03:43:45;;;;;;;67.85;32.75;;;6.50;57.30;;;;;;1795233;80;21279;-73
2021/03/12 03:46:17;;;;;;;67.50;32.67;;;6.50;58.90;;;;;;1794680;80;21157;-74
2021/03/12 03:48:49;;;;;;;60.58;30.65;;;6.50;60.10;;;;;;1795108;80;21165;-73
2021/03/12 03:51:20;;;;;;;62.65;30.23;;;6.40;60.30;;;;;;1793640;80;21620;-73
2021/03/12 03:53:50;;;;;;;58.92;29.87;;;6.20;63.20;;;;;;1795411;80;21141;-72
2021/03/12 03:56:19;;;;;;;53.65;28.25;;;6.10;63.20;;;;;;1795322;80;21703;-72
2021/03/12 03:58:48;;;;;;;59.50;29.40;;;6.20;65.20;;;;;;1795088;80;21607;-73
2021/03/12 04:01:18;;;;;;;52.90;27.15;;;6.30;65.00;;;;;;1795599;80;21552;-73
2021/03/12 04:03:51;;;;;;;50.67;27.22;;;6.40;65.20;;;;;;1794599;80;21188;-73
2021/03/12 04:06:20;;;;;;;49.18;24.72;;;6.20;65.70;;;;;;1795121;80;21268;-73
2021/03/12 04:08:49;;;;;;;44.95;24.80;;;6.20;66.60;;;;;;1795092;80;21283;-73
2021/03/12 04:11:18;;;;;;;46.28;24.07;;;6.10;67.60;;;;;;1795170;80;21729;-73
2021/03/12 04:13:48;;;;;;;40.30;22.50;;;6.00;69.00;;;;;;1795394;80;21149;-73
2021/03/12 04:16:20;;;;;;;41.30;22.50;;;5.90;70.70;;;;;;1799159;80;21594;-73
2021/03/12 04:18:49;;;;;;;45.90;22.58;;;5.70;71.30;;;;;;1801063;79;21141;-73
2021/03/12 04:21:19;;;;;;;42.95;22.13;;;5.60;72.90;;;;;;1801047;80;21741;-73
2021/03/12 04:23:49;;;;;;;41.08;21.57;;;5.60;75.20;;;;;;1801045;80;21566;-72
2021/03/12 04:26:18;;;;;;;42.03;21.40;;;5.60;76.30;;;;;;1800961;80;21133;-73
2021/03/12 04:28:48;;;;;;;43.75;21.57;;;5.80;76.00;;;;;;1801270;79;21287;-72
2021/03/12 04:31:16;;;;;;;42.03;21.57;;;5.80;75.90;;;;;;1769749;80;21153;-72
2021/03/12 04:33:46;;;;;;;43.05;19.45;;;5.70;77.20;;;;;;1801081;80;21283;-73
2021/03/12 04:36:16;;;;;;;38.30;19.32;;;5.60;77.00;;;;;;1801471;80;21172;-72
2021/03/12 04:38:46;;;;;;;40.95;19.60;;;5.50;78.30;;;;;;1769799;80;21118;-73
2021/03/12 04:41:16;;;;;;;41.40;20.32;;;5.30;80.30;;;;;;1801363;79;21133;-73
2021/03/12 04:43:45;;;;;;;35.03;18.98;;;5.10;82.90;;;;;;1801227;79;21158;-73
2021/03/12 04:46:14;;;;;;;39.58;18.17;;;5.00;85.80;;;;;;1800979;79;21280;-73
2021/03/12 04:48:48;;;;;;;30.80;16.52;;;5.00;88.00;;;;;;1800617;80;21122;-73
2021/03/12 04:51:18;;;;;;;32.13;17.20;;;5.20;88.20;;;;;;1800968;79;21300;-73
2021/03/12 04:53:47;;;;;;;34.75;17.80;;;5.40;87.40;;;;;;1800800;80;21145;-73
2021/03/12 04:56:16;;;;;;;37.67;20.00;;;5.60;86.70;;;;;;1801550;79;21137;-73
2021/03/12 04:58:46;;;;;;;38.75;19.57;;;5.60;85.90;;;;;;1801185;80;21551;-73
2021/03/12 05:01:15;;;;;;;41.05;22.05;;;5.60;87.10;;;;;;1801335;80;21130;-73
2021/03/12 05:03:44;;;;;;;35.83;18.80;;;5.60;87.00;;;;;;1801501;80;21140;-73
2021/03/12 05:06:14;;;;;;;34.45;18.35;;;5.80;85.70;;;;;;1800926;80;21279;-73
2021/03/12 05:08:44;;;;;;;44.88;18.92;;;5.80;85.70;;;;;;1799617;79;21113;-73
2021/03/12 05:11:15;;;;;;;31.68;16.93;;;5.90;85.20;;;;;;1800121;79;21595;-73
2021/03/12 05:13:51;;;;;;;32.73;16.87;;;5.90;84.30;;;;;;1798785;80;21288;-73
2021/03/12 05:16:20;;;;;;;34.60;18.80;;;5.80;84.70;;;;;;1797821;79;21177;-73
2021/03/12 05:18:49;;;;;;;34.00;17.20;;;5.80;85.20;;;;;;1795223;80;21701;-72
2021/03/12 05:21:17;;;;;;;34.92;18.90;;;5.90;84.90;;;;;;1795120;80;21742;-72
2021/03/12 05:23:45;;;;;;;40.25;19.50;;;5.80;85.00;;;;;;1795087;80;21323;-73
2021/03/12 05:26:13;;;;;;;35.30;17.40;;;5.80;85.50;;;;;;1795327;80;21133;-73
2021/03/12 05:28:41;;;;;;;34.78;18.35;;;5.60;87.30;;;;;;1795215;80;21121;-73
2021/03/12 05:31:09;;;;;;;31.10;17.62;;;5.50;88.50;;;;;;1762243;80;21142;-71
2021/03/12 05:33:37;;;;;;;32.80;17.65;;;5.50;88.50;;;;;;1795096;80;21703;-72
2021/03/12 05:36:07;;;;;;;33.98;17.70;;;5.60;88.00;;;;;;1794454;80;21591;-72
2021/03/12 05:38:35;;;;;;;34.63;18.55;;;5.70;87.90;;;;;;1787292;79;21174;-71
2021/03/12 05:41:05;;;;;;;38.02;19.73;;;5.70;87.50;;;;;;1775833;79;21129;-74
2021/03/12 05:43:34;;;;;;;34.58;18.17;;;5.60;87.70;;;;;;1712640;84;21300;-72
2021/03/12 05:46:02;;;;;;;33.75;19.27;;;5.50;88.60;;;;;;1739191;81;21244;-72
2021/03/12 05:48:33;;;;;;;39.40;18.90;;;5.60;91.10;;;;;;1767776;81;21107;-72
2021/03/12 05:51:01;;;;;;;37.48;18.95;;;5.50;90.80;;;;;;1769328;80;21139;-74
2021/03/12 05:53:31;;;;;;;38.13;19.67;;;5.40;91.50;;;;;;1768004;80;21161;-69
2021/03/12 05:56:01;;;;;;;37.25;19.02;;;5.50;92.00;;;;;;1770925;80;21106;-72
2021/03/12 05:58:31;;;;;;;38.02;19.20;;;5.60;90.90;;;;;;1781791;79;21122;-71
2021/03/12 06:01:00;;;;;;;37.95;19.23;;;5.60;90.60;;;;;;1764404;79;21141;-72
2021/03/12 06:03:28;;;;;;;35.88;17.73;;;5.70;90.40;;;;;;1781279;79;21099;-74
2021/03/12 06:05:57;;;;;;;35.05;18.52;;;5.60;90.10;;;;;;1773176;80;21141;-79
2021/03/12 06:08:25;;;;;;;36.48;19.07;;;5.60;90.40;;;;;;1766897;80;21267;-78
2021/03/12 06:10:53;;;;;;;34.13;18.37;;;5.60;90.60;;;;;;1755590;80;21177;-79
2021/03/12 06:13:23;;;;;;;35.58;18.25;;;5.60;90.20;;;;;;1769674;80;21134;-81
2021/03/12 06:15:53;;;;;;;35.35;19.45;;;5.60;91.10;;;;;;1770468;81;21183;-82
2021/03/12 06:18:25;;;;;;;37.23;19.70;;;5.70;91.30;;;;;;1778592;80;21191;-78
2021/03/12 06:20:55;;;;;;;41.90;22.10;;;5.90;90.50;;;;;;1770184;81;21141;-77
2021/03/12 06:23:43;;;;;;;36.53;20.48;;;5.90;91.30;;;;;;1775210;79;21585;-77
2021/03/12 06:26:21;;;;;;;37.58;18.90;;;5.90;90.60;;;;;;1770125;79;21735;-76
2021/03/12 06:29:09;;;;;;;37.28;18.60;;;6.00;89.40;;;;;;1783947;79;21106;-80
2021/03/12 06:31:53;;;;;;;35.78;18.12;;;6.00;88.60;;;;;;1730504;79;21130;-80
2021/03/12 06:34:39;;;;;;;37.05;19.10;;;6.00;88.20;;;;;;1761056;79;21130;-79
2021/03/12 06:37:30;;;;;;;38.50;20.17;;;6.00;88.70;;;;;;1783034;79;21142;-80
2021/03/12 06:40:25;;;;;;;37.78;20.48;;;5.80;89.10;;;;;;1761237;79;21166;-81
2021/03/12 06:43:06;;;;;;;36.17;19.92;;;5.60;90.50;;;;;;1779137;79;21129;-80
2021/03/12 06:45:54;;;;;;;31.10;15.18;;;5.50;92.00;;;;;;1805975;79;21122;-79
2021/03/12 06:48:31;;;;;;;29.40;15.45;;;5.70;90.10;;;;;;1792228;79;21548;-81
2021/03/12 06:51:09;;;;;;;32.73;17.65;;;5.90;88.80;;;;;;1778971;79;21145;-79
2021/03/12 06:53:45;;;;;;;36.80;19.30;;;6.00;90.20;;;;;;1768954;79;21548;-79
2021/03/12 06:56:18;;;;;;;33.10;16.60;;;6.10;88.90;;;;;;1776926;79;21554;-82
2021/03/12 06:59:03;;;;;;;34.50;18.60;;;6.30;87.00;;;;;;1771803;79;21608;-80
2021/03/12 07:01:33;;;;;;;33.20;18.00;;;6.40;88.70;;;;;;1781457;79;21114;-78
2021/03/12 07:04:14;;;;;;;34.78;17.60;;;6.40;86.90;;;;;;1772453;79;21126;-79
2021/03/12 07:06:50;;;;;;;31.93;17.45;;;6.50;86.30;;;;;;1752053;81;21150;-75
2021/03/12 07:09:21;;;;;;;33.95;16.32;;;6.40;86.20;;;;;;1766099;80;21171;-76
2021/03/12 07:11:56;;;;;;;38.97;17.77;;;6.50;85.20;;;;;;1747911;81;21569;-76
2021/03/12 07:14:38;;;;;;;34.98;17.57;;;6.40;85.40;;;;;;1765276;81;21130;-73
2021/03/12 07:17:17;;;;;;;32.20;16.93;;;6.50;85.90;;;;;;1764605;80;21139;-77
2021/03/12 07:19:45;;;;;;;34.35;18.32;;;6.50;87.40;;;;;;1770668;81;21715;-78
2021/03/12 07:22:16;;;;;;;31.77;17.25;;;6.60;88.40;;;;;;1741564;81;21128;-77
2021/03/12 07:24:46;;;;;;;33.73;17.95;;;6.60;87.10;;;;;;1721394;81;21147;-78
2021/03/12 07:27:18;;;;;;;33.50;17.70;;;6.80;87.40;;;;;;1771662;80;21135;-76
2021/03/12 07:29:52;;;;;;;30.27;17.17;;;6.80;87.40;;;;;;1765343;80;21177;-77
2021/03/12 07:32:25;;;;;;;31.55;17.75;;;6.90;87.70;;;;;;1771933;79;21131;-76
2021/03/12 07:34:55;;;;;;;29.90;16.27;;;6.90;86.30;;;;;;1751251;80;21130;-77
2021/03/12 07:37:29;;;;;;;31.00;16.57;;;7.10;86.40;;;;;;1764875;80;21630;-77
2021/03/12 07:40:12;;;;;;;32.93;16.20;;;7.20;84.90;;;;;;1751022;81;21592;-77
2021/03/12 07:42:44;;;;;;;31.73;17.57;;;7.30;83.30;;;;;;1635472;85;21188;-75
2021/03/12 07:45:21;;;;;;;29.95;17.82;;;7.40;82.20;;;;;;1705896;82;21141;-77
2021/03/12 07:47:54;;;;;;;28.75;16.10;;;7.50;82.70;;;;;;1668904;84;21164;-75
2021/03/12 07:50:33;;;;;;;31.75;16.23;;;7.50;80.50;;;;;;1651757;87;21173;-77
2021/03/12 07:53:06;;;;;;;25.82;15.48;;;7.60;80.30;;;;;;1679428;84;21194;-79
2021/03/12 07:55:48;;;;;;;30.45;14.80;;;7.80;79.70;;;;;;1705531;84;21122;-80
2021/03/12 07:58:51;;;;;;;32.10;17.25;;;7.90;77.40;;;;;;1682561;85;21201;-74
2021/03/12 08:01:23;;;;;;;30.30;15.95;;;7.90;77.30;;;;;;1704540;84;21131;-75
2021/03/12 08:03:54;;;;;;;27.67;15.65;;;7.80;78.50;;;;;;1704813;84;21140;-74
2021/03/12 08:06:34;;;;;;;28.80;15.30;;;7.90;76.90;;;;;;1707046;83;21187;-75
2021/03/12 08:09:31;;;;;;;26.85;16.25;;;8.00;75.60;;;;;;1689689;83;21265;-74
2021/03/12 08:12:38;;;;;;;30.05;15.98;;;8.00;74.50;;;;;;1705073;82;21205;-84
2021/03/12 08:15:30;;;;;;;29.35;15.43;;;7.80;76.00;;;;;;1706741;82;21136;-78
2021/03/12 08:18:11;;;;;;;27.15;14.83;;;7.80;76.30;;;;;;1698485;84;21295;-75
2021/03/12 08:20:43;;;;;;;25.90;14.30;;;7.70;72.00;;;;;;1705641;84;21294;-75
2021/03/12 08:23:15;;;;;;;25.12;13.85;;;7.70;73.10;;;;;;1704931;84;21698;-75
2021/03/12 08:25:50;;;;;;;21.55;12.25;;;7.60;73.00;;;;;;1706463;83;21152;-80
2021/03/12 08:28:28;;;;;;;25.65;13.15;;;7.60;72.40;;;;;;1687365;84;21282;-75
2021/03/12 08:31:04;;;;;;;23.98;12.75;;;7.70;73.00;;;;;;1698513;84;21199;-76
2021/03/12 08:33:36;;;;;;;24.12;13.20;;;7.80;71.90;;;;;;1705016;83;21646;-75
2021/03/12 08:36:26;;;;;;;23.50;12.58;;;7.70;71.00;;;;;;1688505;84;21177;-76
2021/03/12 08:39:28;;;;;;;24.80;13.28;;;7.70;70.80;;;;;;1693789;84;21153;-76
2021/03/12 08:42:18;;;;;;;20.35;11.33;;;7.80;70.60;;;;;;1704304;84;21170;-75
2021/03/12 08:45:03;;;;;;;23.80;12.70;;;7.80;69.60;;;;;;1681308;85;21161;-74
2021/03/12 08:48:24;;;;;;;24.45;12.80;;;7.70;70.70;;;;;;1806702;78;22939;-75
2021/03/12 08:51:02;;;;;;;22.45;12.58;;;7.60;73.40;;;;;;1795906;80;21630;-80
2021/03/12 08:53:36;;;;;;;24.27;12.95;;;7.50;73.90;;;;;;1770068;80;21129;-77
2021/03/12 08:56:08;;;;;;;21.85;11.55;;;7.50;73.80;;;;;;1784978;78;21204;-79
2021/03/12 08:58:40;;;;;;;23.52;12.10;;;7.50;74.00;;;;;;1801043;78;21190;-78
2021/03/12 09:01:26;;;;;;;23.50;11.60;;;7.40;74.00;;;;;;1802732;78;21559;-79
2021/03/12 09:04:04;;;;;;;19.82;11.40;;;7.30;75.00;;;;;;1791492;78;21136;-78
2021/03/12 09:06:37;;;;;;;22.65;12.30;;;7.40;75.90;;;;;;1795464;78;21188;-78
2021/03/12 09:09:17;;;;;;;23.55;12.75;;;7.30;76.10;;;;;;1798602;78;21175;-75
2021/03/12 09:11:57;;;;;;;21.70;11.87;;;7.40;76.80;;;;;;1794435;78;21191;-75
2021/03/12 09:14:26;;;;;;;20.10;10.72;;;7.40;75.90;;;;;;1771359;80;21151;-77
2021/03/12 09:17:00;;;;;;;23.35;12.00;;;7.50;76.00;;;;;;1773115;80;21599;-75
2021/03/12 09:19:32;;;;;;;21.50;12.18;;;7.60;76.40;;;;;;1786233;79;21134;-76
2021/03/12 09:22:01;;;;;;;21.50;10.82;;;7.70;75.70;;;;;;1800857;79;21224;-74
2021/03/12 09:24:31;;;;;;;18.75;11.18;;;7.90;73.80;;;;;;1781507;80;21611;-73
2021/03/12 09:26:59;;;;;;;21.80;11.88;;;8.00;73.90;;;;;;1778742;80;21255;-75
2021/03/12 09:29:36;;;;;;;19.62;11.75;;;8.20;75.50;;;;;;1799058;78;21132;-75
2021/03/12 09:32:06;;;;;;;19.37;11.08;;;8.40;73.90;;;;;;1751370;81;21196;-75
2021/03/12 09:34:36;;;;;;;18.40;11.15;;;8.40;72.00;;;;;;1766074;80;21215;-73
2021/03/12 09:37:06;;;;;;;19.48;11.15;;;8.60;72.00;;;;;;1773205;80;21665;-75
2021/03/12 09:39:41;;;;;;;22.45;11.40;;;8.60;71.20;;;;;;1778750;80;21334;-75
2021/03/12 09:42:13;;;;;;;23.15;11.88;;;8.70;72.10;;;;;;1813123;78;21165;-74
2021/03/12 09:44:46;;;;;;;19.27;10.65;;;8.70;71.60;;;;;;1810846;78;21185;-73
2021/03/12 09:47:14;;;;;;;23.57;12.37;;;8.60;71.30;;;;;;1803972;78;21100;-73
2021/03/12 09:49:47;;;;;;;20.40;12.13;;;8.60;72.20;;;;;;1795429;78;21557;-75
2021/03/12 09:52:19;;;;;;;23.30;13.65;;;8.60;73.00;;;;;;1790194;79;21084;-74
2021/03/12 09:54:57;;;;;;;22.15;12.90;;;8.50;72.70;;;;;;1800410;78;21207;-71
2021/03/12 09:57:27;;;;;;;20.05;10.80;;;8.40;72.20;;;;;;1806560;78;21148;-73
2021/03/12 09:59:57;;;;;;;20.32;11.25;;;8.30;72.60;;;;;;1796179;79;21128;-74
2021/03/12 10:02:50;;;;;;;23.10;11.18;;;8.20;73.00;;;;;;1797456;79;21149;-79
2021/03/12 10:05:25;;;;;;;20.35;10.68;;;8.20;74.10;;;;;;1737765;80;21167;-71
2021/03/12 10:08:05;;;;;;;22.65;11.03;;;8.00;74.30;;;;;;1794700;78;21166;-81
2021/03/12 10:10:37;;;;;;;23.02;12.18;;;7.80;75.60;;;;;;1775070;79;21116;-75
2021/03/12 10:13:07;;;;;;;24.63;12.30;;;7.90;77.90;;;;;;1792735;78;21192;-74
2021/03/12 10:15:46;;;;;;;19.52;11.68;;;7.90;78.30;;;;;;1804163;78;21180;-74
2021/03/12 10:18:20;;;;;;;24.47;12.43;;;7.90;75.50;;;;;;1774936;78;21472;-77
2021/03/12 10:20:50;;;;;;;25.05;12.07;;;7.80;75.70;;;;;;1795556;78;21140;-77
2021/03/12 10:23:18;;;;;;;26.15;12.47;;;7.80;76.60;;;;;;1802754;78;21558;-73
2021/03/12 10:25:48;;;;;;;25.05;12.75;;;7.80;77.30;;;;;;1803939;78;21649;-72
2021/03/12 10:28:23;;;;;;;25.05;13.58;;;7.90;77.40;;;;;;1795665;78;21187;-74
2021/03/12 10:30:58;;;;;;;21.73;12.75;;;8.00;77.80;;;;;;1791865;79;21222;-76
2021/03/12 10:33:30;;;;;;;26.95;13.38;;;8.00;77.90;;;;;;1797105;78;21155;-72
2021/03/12 10:36:04;;;;;;;23.80;11.95;;;7.90;77.40;;;;;;1794437;78;21187;-72
2021/03/12 10:38:34;;;;;;;26.17;12.95;;;7.90;77.30;;;;;;1799452;78;21136;-73
2021/03/12 10:41:19;;;;;;;25.00;12.65;;;7.90;77.90;;;;;;1790559;78;21135;-74
2021/03/12 10:44:01;;;;;;;24.00;12.13;;;7.80;77.40;;;;;;1794022;79;21147;-75
2021/03/12 10:46:31;;;;;;;22.87;12.30;;;7.80;77.20;;;;;;1800021;78;21132;-75
2021/03/12 10:49:02;;;;;;;23.60;12.93;;;7.80;77.80;;;;;;1792788;79;21219;-72
2021/03/12 10:51:41;;;;;;;24.20;12.68;;;7.70;78.80;;;;;;1796751;78;21200;-73
2021/03/12 10:54:12;;;;;;;26.23;14.00;;;7.70;80.50;;;;;;1799231;78;21173;-73
2021/03/12 10:56:48;;;;;;;23.38;12.58;;;7.70;82.70;;;;;;1786072;79;21281;-71
2021/03/12 10:59:16;;;;;;;22.80;12.70;;;7.80;79.20;;;;;;1792208;78;21172;-73
2021/03/12 11:01:47;;;;;;;25.72;12.70;;;7.90;78.90;;;;;;1786180;79;21160;-74
2021/03/12 11:04:16;;;;;;;21.40;12.40;;;8.00;78.90;;;;;;1792642;79;21128;-73
2021/03/12 11:06:44;;;;;;;31.23;13.08;;;8.20;78.60;;;;;;1795845;78;21169;-76
2021/03/12 11:09:13;;;;;;;25.17;12.58;;;8.30;78.40;;;;;;1784700;78;21574;-74
2021/03/12 11:11:44;;;;;;;22.80;13.03;;;8.30;78.30;;;;;;1793478;78;21175;-74
2021/03/12 11:14:12;;;;;;;25.08;12.68;;;8.40;78.70;;;;;;1792690;78;21145;-75
2021/03/12 11:16:40;;;;;;;24.80;13.60;;;8.40;79.10;;;;;;1786660;78;21203;-73
2021/03/12 11:19:11;;;;;;;25.30;13.45;;;8.40;79.20;;;;;;1797194;78;21474;-74
2021/03/12 11:21:39;;;;;;;30.40;14.78;;;8.40;79.20;;;;;;1789569;78;21262;-77
2021/03/12 11:24:09;;;;;;;27.52;13.15;;;8.40;79.00;;;;;;1793532;78;21171;-74
2021/03/12 11:26:37;;;;;;;23.80;13.20;;;8.40;79.50;;;;;;1795519;78;21113;-75
2021/03/12 11:29:04;;;;;;;27.25;13.13;;;8.60;77.70;;;;;;1802333;78;21587;-74
2021/03/12 11:31:34;;;;;;;24.60;13.45;;;8.70;77.40;;;;;;1789553;78;21195;-74
2021/03/12 11:34:03;;;;;;;24.00;13.00;;;8.90;77.20;;;;;;1801258;78;21207;-74
2021/03/12 11:36:34;;;;;;;25.82;14.40;;;9.10;77.40;;;;;;1800134;78;21148;-74
2021/03/12 11:39:03;;;;;;;23.75;12.93;;;9.10;77.00;;;;;;1789070;78;21180;-76
2021/03/12 11:41:31;;;;;;;19.55;11.88;;;9.10;76.50;;;;;;1794476;80;21314;-73
2021/03/12 11:43:59;;;;;;;25.17;14.05;;;9.20;75.40;;;;;;1794878;80;21585;-73
2021/03/12 11:46:26;;;;;;;20.20;12.05;;;9.20;77.60;;;;;;1784471;80;21156;-77
2021/03/12 11:48:54;;;;;;;21.87;12.47;;;9.30;76.10;;;;;;1795701;79;21322;-71
2021/03/12 11:51:23;;;;;;;22.55;12.25;;;9.50;74.70;;;;;;1798803;78;21654;-70
2021/03/12 11:53:50;;;;;;;23.25;12.47;;;9.60;74.00;;;;;;1791896;78;21551;-72
2021/03/12 11:56:18;;;;;;;22.62;13.10;;;9.60;73.60;;;;;;1777606;80;21163;-71
2021/03/12 11:58:45;;;;;;;22.70;13.18;;;9.50;73.60;;;;;;1789006;79;21597;-69
2021/03/12 12:01:13;;;;;;;24.05;12.73;;;9.60;73.70;;;;;;1789700;78;21124;-78
2021/03/12 12:03:41;;;;;;;22.45;12.75;;;9.60;73.70;;;;;;1803198;78;21148;-76
2021/03/12 12:06:09;;;;;;;26.35;14.15;;;9.70;74.20;;;;;;1792997;78;21155;-77
2021/03/12 12:08:36;;;;;;;21.65;12.60;;;9.80;74.10;;;;;;1798453;78;21186;-77
2021/03/12 12:11:05;;;;;;;23.20;12.68;;;9.80;74.10;;;;;;1794787;78;21235;-79
2021/03/12 12:13:33;;;;;;;25.75;14.13;;;9.90;73.10;;;;;;1784718;79;21589;-77
2021/03/12 12:16:01;;;;;;;26.70;13.43;;;10.00;72.80;;;;;;1785547;78;21378;-75
2021/03/12 12:18:30;;;;;;;24.50;13.32;;;10.00;73.90;;;;;;1789612;80;21158;-75
2021/03/12 12:21:01;;;;;;;23.40;13.10;;;10.10;72.40;;;;;;1795252;78;21171;-73
2021/03/12 12:23:29;;;;;;;25.80;13.80;;;10.00;72.30;;;;;;1796533;78;21717;-73
2021/03/12 12:25:57;;;;;;;24.45;14.13;;;10.00;72.90;;;;;;1794159;78;21159;-77
2021/03/12 12:28:25;;;;;;;29.85;15.35;;;10.20;72.40;;;;;;1797982;78;21137;-77
2021/03/12 12:30:53;;;;;;;27.52;15.48;;;10.30;72.80;;;;;;1800640;78;21202;-77
2021/03/12 12:33:21;;;;;;;32.13;15.18;;;10.30;73.10;;;;;;1787758;80;21301;-79
2021/03/12 12:35:49;;;;;;;29.57;15.23;;;10.40;72.10;;;;;;1785241;78;21219;-79
2021/03/12 12:38:17;;;;;;;31.12;15.78;;;10.50;73.10;;;;;;1787822;78;21312;-74
2021/03/12 12:40:44;;;;;;;28.15;15.13;;;10.50;72.50;;;;;;1798898;79;21380;-78
2021/03/12 12:43:13;;;;;;;28.27;14.80;;;10.50;72.20;;;;;;1797707;78;21701;-74
2021/03/12 12:45:41;;;;;;;25.05;13.93;;;10.50;71.50;;;;;;1795899;79;21231;-73
2021/03/12 12:48:09;;;;;;;24.60;13.48;;;10.20;72.20;;;;;;1798683;79;21597;-74
2021/03/12 12:50:39;;;;;;;22.93;12.03;;;10.20;73.00;;;;;;1799482;79;21232;-80
2021/03/12 12:53:08;;;;;;;32.70;15.83;;;10.10;73.00;;;;;;1799838;79;21583;-78
2021/03/12 12:55:35;;;;;;;34.53;16.05;;;10.30;73.60;;;;;;1792609;79;21639;-75
2021/03/12 12:58:03;;;;;;;27.55;15.03;;;10.50;73.70;;;;;;1791495;78;21219;-77
2021/03/12 13:00:32;;;;;;;26.90;15.05;;;10.60;72.60;;;;;;1806863;78;21138;-78
2021/03/12 13:03:00;;;;;;;29.15;14.78;;;10.70;71.80;;;;;;1816324;78;21179;-78